createdAt,value
2023-05-16T00:00:02.083Z,962.3600
2023-05-16T00:01:04.668Z,962.3561
2023-05-16T00:02:07.430Z,962.3446
2023-05-16T00:03:09.956Z,962.3392
2023-05-16T00:04:12.603Z,962.3369
2023-05-16T00:05:15.069Z,962.3292
2023-05-16T00:06:17.701Z,962.3208
2023-05-16T00:07:20.280Z,962.3138
2023-05-16T00:08:22.966Z,962.3100
2023-05-16T00:09:25.487Z,962.3100
2023-05-16T00:10:28.668Z,962.3100
2023-05-16T00:11:30.705Z,962.2977
2023-05-16T00:12:33.319Z,962.2846
2023-05-16T00:15:15.030Z,962.2750
2023-05-16T00:16:17.646Z,962.2585
2023-05-16T00:17:20.237Z,962.2500
2023-05-16T00:18:22.838Z,962.2415
2023-05-16T00:19:25.422Z,962.2377
2023-05-16T00:20:28.498Z,962.2361
2023-05-16T00:21:30.714Z,962.2400
2023-05-16T00:22:33.257Z,962.2577
2023-05-16T00:23:35.839Z,962.2608
2023-05-16T00:24:38.465Z,962.2646
2023-05-16T00:25:41.085Z,962.2531
2023-05-16T00:26:43.692Z,962.2608
2023-05-16T00:27:46.272Z,962.2469
2023-05-16T00:28:48.904Z,962.2508
2023-05-16T00:29:51.474Z,962.2523
2023-05-16T00:30:54.108Z,962.2508
2023-05-16T00:31:56.730Z,962.2385
2023-05-16T00:32:59.358Z,962.2184
2023-05-16T00:34:01.959Z,962.1931
2023-05-16T00:35:04.541Z,962.1600
2023-05-16T00:36:07.112Z,962.1377
2023-05-16T00:37:09.740Z,962.1392
2023-05-16T00:38:12.319Z,962.1346
2023-05-16T00:39:14.947Z,962.1385
2023-05-16T00:40:17.530Z,962.1431
2023-05-16T00:41:20.152Z,962.1385
2023-05-16T00:42:22.757Z,962.1130
2023-05-16T00:43:25.368Z,962.1023
2023-05-16T00:44:27.962Z,962.1200
2023-05-16T00:45:30.764Z,962.1447
2023-05-16T00:46:33.195Z,962.1546
2023-05-16T00:47:35.800Z,962.1577
2023-05-16T00:48:38.359Z,962.1708
2023-05-16T00:49:40.982Z,962.1946
2023-05-16T00:50:43.577Z,962.2169
2023-05-16T00:51:46.203Z,962.2285
2023-05-16T00:52:48.772Z,962.2231
2023-05-16T00:53:51.651Z,962.2123
2023-05-16T00:54:53.987Z,962.2008
2023-05-16T00:55:56.605Z,962.1815
2023-05-16T00:56:59.201Z,962.1669
2023-05-16T00:58:01.820Z,962.1554
2023-05-16T00:59:04.395Z,962.1500
2023-05-16T01:00:07.053Z,962.1346
2023-05-16T01:01:09.660Z,962.1138
2023-05-16T01:02:12.286Z,962.1092
2023-05-16T01:03:14.944Z,962.1308
2023-05-16T01:04:17.451Z,962.1523
2023-05-16T01:05:20.033Z,962.1584
2023-05-16T01:06:22.675Z,962.1615
2023-05-16T01:07:25.276Z,962.1715
2023-05-16T01:08:27.871Z,962.1661
2023-05-16T01:09:30.448Z,962.1600
2023-05-16T01:10:33.133Z,962.1370
2023-05-16T01:11:35.653Z,962.0892
2023-05-16T01:12:38.280Z,962.0792
2023-05-16T01:13:40.887Z,962.0739
2023-05-16T01:14:43.489Z,962.0677
2023-05-16T01:17:01.115Z,962.0322
2023-05-16T01:18:03.738Z,962.0292
2023-05-16T01:19:06.424Z,962.0331
2023-05-16T01:20:08.922Z,962.0392
2023-05-16T01:21:11.554Z,962.0323
2023-05-16T01:22:14.142Z,962.0339
2023-05-16T01:23:16.768Z,962.0400
2023-05-16T01:24:19.348Z,962.0585
2023-05-16T01:25:21.992Z,962.0569
2023-05-16T01:26:24.583Z,962.0723
2023-05-16T01:27:27.184Z,962.0892
2023-05-16T01:28:29.779Z,962.1061
2023-05-16T01:29:32.410Z,962.1200
2023-05-16T01:30:34.982Z,962.1138
2023-05-16T01:31:37.670Z,962.0877
2023-05-16T01:32:40.258Z,962.0823
2023-05-16T01:33:42.824Z,962.0731
2023-05-16T01:34:45.401Z,962.0854
2023-05-16T01:35:48.048Z,962.0839
2023-05-16T01:36:50.633Z,962.0731
2023-05-16T01:37:53.253Z,962.0515
2023-05-16T01:38:55.827Z,962.0461
2023-05-16T01:41:32.719Z,962.0486
2023-05-16T01:42:35.347Z,962.0361
2023-05-16T01:43:37.940Z,962.0361
2023-05-16T01:44:40.571Z,962.0554
2023-05-16T01:45:43.154Z,962.0708
2023-05-16T01:48:15.292Z,962.0900
2023-05-16T01:49:17.844Z,962.0862
2023-05-16T01:50:20.561Z,962.0692
2023-05-16T01:51:23.051Z,962.0646
2023-05-16T01:52:25.776Z,962.0630
2023-05-16T01:53:28.272Z,962.0585
2023-05-16T01:54:30.907Z,962.0346
2023-05-16T01:55:33.505Z,962.0077
2023-05-16T01:56:36.158Z,961.9946
2023-05-16T01:57:38.696Z,961.9823
2023-05-16T02:00:05.988Z,961.9721
2023-05-16T02:01:08.682Z,961.9547
2023-05-16T02:02:11.188Z,961.9377
2023-05-16T02:03:13.874Z,961.9246
2023-05-16T02:06:09.961Z,961.9128
2023-05-16T02:07:12.537Z,961.9223
2023-05-16T02:08:15.165Z,961.9161
2023-05-16T02:09:17.750Z,961.9300
2023-05-16T02:10:20.389Z,961.9400
2023-05-16T02:11:22.973Z,961.9408
2023-05-16T02:12:25.607Z,961.9438
2023-05-16T02:13:28.185Z,961.9385
2023-05-16T02:14:30.835Z,961.9431
2023-05-16T02:15:33.411Z,961.9392
2023-05-16T02:16:36.061Z,961.9269
2023-05-16T02:17:38.647Z,961.9185
2023-05-16T02:18:41.327Z,961.9146
2023-05-16T02:19:43.851Z,961.9016
2023-05-16T02:20:46.482Z,961.8985
2023-05-16T02:21:49.067Z,961.8969
2023-05-16T02:22:51.697Z,961.9031
2023-05-16T02:23:54.274Z,961.9108
2023-05-16T02:24:56.926Z,961.9100
2023-05-16T02:27:14.537Z,961.8729
2023-05-16T02:28:17.129Z,961.8685
2023-05-16T02:29:19.757Z,961.8523
2023-05-16T02:30:22.331Z,961.8492
2023-05-16T02:31:25.068Z,961.8531
2023-05-16T02:32:27.551Z,961.8569
2023-05-16T02:33:30.187Z,961.8738
2023-05-16T02:34:32.796Z,961.8754
2023-05-16T02:35:35.399Z,961.8808
2023-05-16T02:36:37.990Z,961.8808
2023-05-16T02:37:40.604Z,961.8870
2023-05-16T02:38:43.200Z,961.8777
2023-05-16T02:39:45.829Z,961.8854
2023-05-16T02:40:48.426Z,961.9039
2023-05-16T02:41:51.008Z,961.9161
2023-05-16T02:42:53.634Z,961.9108
2023-05-16T02:43:56.223Z,961.9023
2023-05-16T02:44:58.844Z,961.8939
2023-05-16T02:46:01.455Z,961.8970
2023-05-16T02:47:04.063Z,961.8900
2023-05-16T02:48:06.737Z,961.8931
2023-05-16T02:49:09.328Z,961.8962
2023-05-16T02:50:11.970Z,961.9023
2023-05-16T02:51:14.482Z,961.9008
2023-05-16T02:52:17.062Z,961.8985
2023-05-16T02:53:19.697Z,961.8970
2023-05-16T02:54:22.267Z,961.9061
2023-05-16T02:55:24.907Z,961.8954
2023-05-16T02:56:27.480Z,961.8831
2023-05-16T02:57:30.115Z,961.8600
2023-05-16T02:58:32.695Z,961.8553
2023-05-16T02:59:35.324Z,961.8285
2023-05-16T03:00:37.928Z,961.8100
2023-05-16T03:01:40.574Z,961.8130
2023-05-16T03:02:43.179Z,961.8223
2023-05-16T03:03:45.852Z,961.8538
2023-05-16T03:04:48.348Z,961.8439
2023-05-16T03:05:51.131Z,961.8246
2023-05-16T03:06:53.542Z,961.7977
2023-05-16T03:07:56.190Z,961.7754
2023-05-16T03:08:58.765Z,961.7800
2023-05-16T03:10:01.413Z,961.7592
2023-05-16T03:11:04.020Z,961.7246
2023-05-16T03:12:07.195Z,961.7039
2023-05-16T03:13:09.206Z,961.6669
2023-05-16T03:14:11.823Z,961.6392
2023-05-16T03:15:14.405Z,961.6653
2023-05-16T03:16:17.121Z,961.6730
2023-05-16T03:17:19.646Z,961.6508
2023-05-16T03:18:22.249Z,961.6439
2023-05-16T03:19:24.902Z,961.6470
2023-05-16T03:20:27.469Z,961.6646
2023-05-16T03:21:30.216Z,961.6615
2023-05-16T03:22:32.670Z,961.6516
2023-05-16T03:23:35.262Z,961.6177
2023-05-16T03:24:37.994Z,961.5700
2023-05-16T03:25:40.463Z,961.5385
2023-05-16T03:26:43.087Z,961.5247
2023-05-16T03:27:45.669Z,961.5162
2023-05-16T03:28:48.302Z,961.4915
2023-05-16T03:29:50.892Z,961.4777
2023-05-16T03:30:53.510Z,961.4753
2023-05-16T03:31:56.138Z,961.4746
2023-05-16T03:32:58.756Z,961.4900
2023-05-16T03:34:01.303Z,961.4885
2023-05-16T03:35:03.932Z,961.4962
2023-05-16T03:37:11.979Z,961.5000
2023-05-16T03:38:14.623Z,961.5170
2023-05-16T03:39:17.201Z,961.4846
2023-05-16T03:40:19.839Z,961.4615
2023-05-16T03:41:22.418Z,961.4539
2023-05-16T03:42:25.048Z,961.4454
2023-05-16T03:43:27.625Z,961.4547
2023-05-16T03:44:30.267Z,961.4677
2023-05-16T03:45:32.995Z,961.4869
2023-05-16T03:46:35.485Z,961.4877
2023-05-16T03:47:38.088Z,961.4915
2023-05-16T03:48:40.691Z,961.4923
2023-05-16T03:49:43.273Z,961.4985
2023-05-16T03:50:45.934Z,961.5062
2023-05-16T03:51:48.486Z,961.5223
2023-05-16T03:52:51.124Z,961.5223
2023-05-16T03:53:53.710Z,961.5369
2023-05-16T03:54:56.357Z,961.5415
2023-05-16T03:55:59.050Z,961.5385
2023-05-16T03:57:01.548Z,961.5339
2023-05-16T03:58:04.148Z,961.5554
2023-05-16T03:59:06.765Z,961.5670
2023-05-16T04:00:09.379Z,961.5969
2023-05-16T04:01:11.982Z,961.6123
2023-05-16T04:02:15.447Z,961.6169
2023-05-16T04:03:17.215Z,961.6161
2023-05-16T04:04:19.960Z,961.6161
2023-05-16T04:05:22.452Z,961.6092
2023-05-16T04:06:25.021Z,961.6123
2023-05-16T04:07:27.641Z,961.6370
2023-05-16T04:08:30.208Z,961.6608
2023-05-16T04:09:32.855Z,961.6677
2023-05-16T04:10:35.435Z,961.6608
2023-05-16T04:11:38.057Z,961.6485
2023-05-16T04:12:40.664Z,961.6500
2023-05-16T04:13:43.343Z,961.6469
2023-05-16T04:14:45.855Z,961.6708
2023-05-16T04:15:48.490Z,961.6954
2023-05-16T04:18:30.237Z,961.7243
2023-05-16T04:19:32.792Z,961.7315
2023-05-16T04:20:35.431Z,961.7369
2023-05-16T04:22:48.265Z,961.7636
2023-05-16T04:23:50.826Z,961.7438
2023-05-16T04:24:53.487Z,961.7292
2023-05-16T04:25:56.053Z,961.7192
2023-05-16T04:28:52.231Z,961.7321
2023-05-16T04:29:54.863Z,961.7446
2023-05-16T04:30:57.449Z,961.7523
2023-05-16T04:32:00.242Z,961.7570
2023-05-16T04:33:02.706Z,961.7615
2023-05-16T04:34:05.309Z,961.7531
2023-05-16T04:35:07.893Z,961.7523
2023-05-16T04:36:10.523Z,961.7754
2023-05-16T04:37:13.116Z,961.8000
2023-05-16T04:38:15.748Z,961.8154
2023-05-16T04:39:18.328Z,961.8300
2023-05-16T04:40:20.988Z,961.8270
2023-05-16T04:41:23.550Z,961.8307
2023-05-16T04:42:26.188Z,961.8538
2023-05-16T04:43:28.779Z,961.8592
2023-05-16T04:44:31.407Z,961.8484
2023-05-16T04:45:35.897Z,961.8400
2023-05-16T04:46:36.668Z,961.8408
2023-05-16T04:47:39.273Z,961.8553
2023-05-16T04:48:41.826Z,961.8738
2023-05-16T04:49:44.417Z,961.8962
2023-05-16T04:50:47.168Z,961.9077
2023-05-16T04:51:49.622Z,961.8954
2023-05-16T04:52:53.544Z,961.8846
2023-05-16T04:53:54.859Z,961.8692
2023-05-16T04:54:57.439Z,961.8654
2023-05-16T04:56:00.098Z,961.8708
2023-05-16T04:57:02.658Z,961.8508
2023-05-16T04:58:05.312Z,961.8461
2023-05-16T04:59:07.867Z,961.8569
2023-05-16T05:00:10.487Z,961.8546
2023-05-16T05:01:13.120Z,961.8469
2023-05-16T05:02:15.809Z,961.8315
2023-05-16T05:03:18.378Z,961.8461
2023-05-16T05:04:20.921Z,961.8553
2023-05-16T05:05:23.737Z,961.8516
2023-05-16T05:06:26.143Z,961.8315
2023-05-16T05:07:28.942Z,961.8262
2023-05-16T05:08:31.343Z,961.8385
2023-05-16T05:09:33.926Z,961.8408
2023-05-16T05:10:36.542Z,961.8423
2023-05-16T05:11:39.133Z,961.8577
2023-05-16T05:12:41.773Z,961.8762
2023-05-16T05:13:44.350Z,961.8854
2023-05-16T05:14:46.960Z,961.8877
2023-05-16T05:15:49.542Z,961.8754
2023-05-16T05:16:52.201Z,961.8738
2023-05-16T05:17:54.867Z,961.8870
2023-05-16T05:18:57.484Z,961.8870
2023-05-16T05:20:02.447Z,961.8923
2023-05-16T05:21:02.587Z,961.9061
2023-05-16T05:22:05.163Z,961.9423
2023-05-16T05:24:22.782Z,961.9471
2023-05-16T05:25:25.524Z,961.9338
2023-05-16T05:26:27.983Z,961.9485
2023-05-16T05:27:30.584Z,961.9377
2023-05-16T05:28:33.206Z,961.9385
2023-05-16T05:29:35.772Z,961.9508
2023-05-16T05:30:38.855Z,961.9408
2023-05-16T05:31:41.027Z,961.9531
2023-05-16T05:32:43.663Z,961.9746
2023-05-16T05:33:46.207Z,961.9592
2023-05-16T05:34:48.838Z,961.9508
2023-05-16T05:35:51.435Z,961.9354
2023-05-16T05:36:54.046Z,961.9246
2023-05-16T05:37:56.638Z,961.9261
2023-05-16T05:38:59.272Z,961.9200
2023-05-16T05:40:01.857Z,961.9069
2023-05-16T05:41:04.474Z,961.9031
2023-05-16T05:42:07.062Z,961.9131
2023-05-16T05:43:09.678Z,961.9208
2023-05-16T05:44:12.270Z,961.9246
2023-05-16T05:45:14.903Z,961.9323
2023-05-16T05:46:17.604Z,961.9277
2023-05-16T05:47:20.178Z,961.9208
2023-05-16T05:48:22.668Z,961.9023
2023-05-16T05:49:25.298Z,961.9100
2023-05-16T05:50:27.885Z,961.9230
2023-05-16T05:51:30.513Z,961.9031
2023-05-16T05:52:33.185Z,961.8992
2023-05-16T05:53:35.722Z,961.9023
2023-05-16T05:54:38.291Z,961.9300
2023-05-16T05:55:40.977Z,961.9346
2023-05-16T05:56:43.502Z,961.9485
2023-05-16T05:57:46.147Z,961.9531
2023-05-16T05:58:48.736Z,961.9531
2023-05-16T05:59:51.343Z,961.9562
2023-05-16T06:00:53.922Z,961.9554
2023-05-16T06:01:56.551Z,961.9639
2023-05-16T06:02:59.328Z,961.9738
2023-05-16T06:04:02.263Z,961.9861
2023-05-16T06:05:04.340Z,962.0015
2023-05-16T06:06:06.970Z,962.0031
2023-05-16T06:07:09.517Z,961.9985
2023-05-16T06:08:12.151Z,961.9938
2023-05-16T06:09:14.745Z,962.0046
2023-05-16T06:10:17.319Z,962.0000
2023-05-16T06:11:19.947Z,961.9738
2023-05-16T06:12:22.522Z,961.9677
2023-05-16T06:13:25.143Z,961.9615
2023-05-16T06:14:27.719Z,961.9700
2023-05-16T06:15:30.341Z,961.9661
2023-05-16T06:16:32.937Z,961.9631
2023-05-16T06:17:35.579Z,961.9746
2023-05-16T06:18:38.170Z,961.9854
2023-05-16T06:19:40.763Z,961.9877
2023-05-16T06:20:43.346Z,961.9854
2023-05-16T06:21:45.962Z,961.9846
2023-05-16T06:22:48.543Z,961.9623
2023-05-16T06:23:51.177Z,961.9708
2023-05-16T06:24:53.748Z,962.0000
2023-05-16T06:25:56.380Z,962.0070
2023-05-16T06:26:58.950Z,962.0046
2023-05-16T06:28:01.912Z,961.9915
2023-05-16T06:29:04.155Z,962.0077
2023-05-16T06:30:06.782Z,962.0262
2023-05-16T06:31:09.396Z,962.0408
2023-05-16T06:32:13.539Z,962.0731
2023-05-16T06:33:14.580Z,962.0708
2023-05-16T06:34:17.200Z,962.0685
2023-05-16T06:35:19.792Z,962.1023
2023-05-16T06:36:22.437Z,962.1262
2023-05-16T06:37:25.005Z,962.1223
2023-05-16T06:38:27.634Z,962.1130
2023-05-16T06:39:30.217Z,962.1085
2023-05-16T06:40:32.831Z,962.1161
2023-05-16T06:41:35.428Z,962.1115
2023-05-16T06:42:38.035Z,962.1023
2023-05-16T06:43:40.615Z,962.0977
2023-05-16T06:44:43.263Z,962.1023
2023-05-16T06:45:45.838Z,962.1069
2023-05-16T06:46:48.772Z,962.1008
2023-05-16T06:47:51.066Z,962.1053
2023-05-16T06:48:53.655Z,962.1130
2023-05-16T06:49:56.235Z,962.0877
2023-05-16T06:50:58.858Z,962.0954
2023-05-16T06:52:01.450Z,962.1215
2023-05-16T06:54:33.477Z,962.1343
2023-05-16T06:55:36.102Z,962.1561
2023-05-16T06:56:38.681Z,962.1569
2023-05-16T06:57:41.318Z,962.1516
2023-05-16T06:58:43.906Z,962.1408
2023-05-16T06:59:46.533Z,962.1362
2023-05-16T07:00:49.228Z,962.1485
2023-05-16T07:01:51.882Z,962.1516
2023-05-16T07:04:52.673Z,962.1807
2023-05-16T07:05:55.298Z,962.1915
2023-05-16T07:06:57.909Z,962.2031
2023-05-16T07:08:00.519Z,962.2123
2023-05-16T07:09:03.105Z,962.2216
2023-05-16T07:10:05.722Z,962.2023
2023-05-16T07:11:08.316Z,962.2138
2023-05-16T07:12:10.929Z,962.2177
2023-05-16T07:14:28.618Z,962.2050
2023-05-16T07:15:31.164Z,962.2069
2023-05-16T07:16:33.766Z,962.2139
2023-05-16T07:17:36.347Z,962.2246
2023-05-16T07:18:39.013Z,962.2354
2023-05-16T07:19:41.556Z,962.2254
2023-05-16T07:20:44.194Z,962.2131
2023-05-16T07:21:46.767Z,962.2108
2023-05-16T07:22:49.429Z,962.2000
2023-05-16T07:23:51.994Z,962.1808
2023-05-16T07:24:54.632Z,962.1738
2023-05-16T07:25:57.243Z,962.2031
2023-05-16T07:26:59.843Z,962.2154
2023-05-16T07:28:02.426Z,962.2361
2023-05-16T07:29:05.065Z,962.2885
2023-05-16T07:30:07.680Z,962.2654
2023-05-16T07:31:10.291Z,962.2369
2023-05-16T07:32:12.926Z,962.2200
2023-05-16T07:33:15.522Z,962.2692
2023-05-16T07:34:18.081Z,962.2531
2023-05-16T07:35:20.716Z,962.2538
2023-05-16T07:36:23.308Z,962.2492
2023-05-16T07:37:25.946Z,962.2662
2023-05-16T07:38:28.564Z,962.2500
2023-05-16T07:39:31.142Z,962.2608
2023-05-16T07:40:33.766Z,962.2577
2023-05-16T07:41:36.388Z,962.2816
2023-05-16T07:42:38.994Z,962.2623
2023-05-16T07:43:41.612Z,962.2877
2023-05-16T07:44:44.252Z,962.2892
2023-05-16T07:45:46.850Z,962.2969
2023-05-16T07:46:49.441Z,962.2900
2023-05-16T07:47:52.074Z,962.2700
2023-05-16T07:48:54.654Z,962.2654
2023-05-16T07:49:57.236Z,962.2692
2023-05-16T07:50:59.878Z,962.2623
2023-05-16T07:52:02.457Z,962.2546
2023-05-16T07:53:05.085Z,962.2639
2023-05-16T07:54:07.686Z,962.2508
2023-05-16T07:55:10.331Z,962.2585
2023-05-16T07:57:32.727Z,962.2538
2023-05-16T07:58:35.358Z,962.2723
2023-05-16T07:59:38.063Z,962.2739
2023-05-16T08:00:40.595Z,962.2685
2023-05-16T08:01:43.189Z,962.3069
2023-05-16T08:02:45.938Z,962.3085
2023-05-16T08:03:48.467Z,962.2723
2023-05-16T08:04:51.030Z,962.2900
2023-05-16T08:05:53.628Z,962.2816
2023-05-16T08:06:56.265Z,962.2977
2023-05-16T08:07:58.832Z,962.2938
2023-05-16T08:09:01.466Z,962.2961
2023-05-16T08:10:04.055Z,962.3077
2023-05-16T08:11:06.698Z,962.3177
2023-05-16T08:12:09.263Z,962.3400
2023-05-16T08:13:11.910Z,962.3677
2023-05-16T08:14:14.489Z,962.3862
2023-05-16T08:15:17.073Z,962.3892
2023-05-16T08:16:19.739Z,962.3746
2023-05-16T08:17:22.309Z,962.3730
2023-05-16T08:18:24.942Z,962.3661
2023-05-16T08:19:27.535Z,962.3685
2023-05-16T08:20:30.141Z,962.3546
2023-05-16T08:21:32.709Z,962.3408
2023-05-16T08:22:35.327Z,962.3192
2023-05-16T08:23:37.916Z,962.3239
2023-05-16T08:24:40.539Z,962.3092
2023-05-16T08:25:43.129Z,962.3077
2023-05-16T08:26:45.761Z,962.3215
2023-05-16T08:27:48.336Z,962.3146
2023-05-16T08:28:50.957Z,962.3307
2023-05-16T08:31:32.662Z,962.3536
2023-05-16T08:32:35.238Z,962.4023
2023-05-16T08:33:37.869Z,962.3669
2023-05-16T08:34:40.664Z,962.3254
2023-05-16T08:37:12.460Z,962.4050
2023-05-16T08:38:15.102Z,962.4115
2023-05-16T08:39:17.676Z,962.3877
2023-05-16T08:40:20.259Z,962.3777
2023-05-16T08:41:22.910Z,962.3554
2023-05-16T08:42:25.487Z,962.3792
2023-05-16T08:43:28.142Z,962.3846
2023-05-16T08:44:30.772Z,962.3862
2023-05-16T08:45:33.839Z,962.3608
2023-05-16T08:46:35.978Z,962.3730
2023-05-16T08:47:38.575Z,962.4008
2023-05-16T08:48:41.129Z,962.3623
2023-05-16T08:49:43.770Z,962.3700
2023-05-16T08:52:44.668Z,962.3700
2023-05-16T08:53:47.311Z,962.3907
2023-05-16T08:55:02.015Z,962.3962
2023-05-16T08:55:52.529Z,962.3561
2023-05-16T08:56:55.110Z,962.3546
2023-05-16T08:57:57.767Z,962.3392
2023-05-16T08:59:00.326Z,962.3631
2023-05-16T09:00:02.988Z,962.3685
2023-05-16T09:01:05.605Z,962.3915
2023-05-16T09:02:08.176Z,962.4100
2023-05-16T09:03:10.787Z,962.4169
2023-05-16T09:04:13.444Z,962.4231
2023-05-16T09:05:15.981Z,962.4716
2023-05-16T09:06:18.613Z,962.4546
2023-05-16T09:07:21.195Z,962.4215
2023-05-16T09:08:23.827Z,962.4231
2023-05-16T09:09:26.420Z,962.4438
2023-05-16T09:10:29.062Z,962.4885
2023-05-16T09:11:31.640Z,962.4254
2023-05-16T09:12:34.269Z,962.4431
2023-05-16T09:13:36.890Z,962.4077
2023-05-16T09:14:39.499Z,962.4330
2023-05-16T09:15:42.078Z,962.4600
2023-05-16T09:16:44.736Z,962.4477
2023-05-16T09:17:47.545Z,962.4392
2023-05-16T09:18:50.002Z,962.4246
2023-05-16T09:19:52.521Z,962.4223
2023-05-16T09:20:55.143Z,962.4261
2023-05-16T09:21:57.727Z,962.3931
2023-05-16T09:23:00.387Z,962.4523
2023-05-16T09:24:02.954Z,962.3954
2023-05-16T09:25:06.928Z,962.4146
2023-05-16T09:26:08.902Z,962.3939
2023-05-16T09:27:10.804Z,962.3531
2023-05-16T09:28:13.395Z,962.3046
2023-05-16T09:29:16.031Z,962.3746
2023-05-16T09:30:18.618Z,962.3162
2023-05-16T09:31:21.355Z,962.2969
2023-05-16T09:32:23.939Z,962.2946
2023-05-16T09:33:26.467Z,962.2877
2023-05-16T09:34:29.034Z,962.2669
2023-05-16T09:35:43.912Z,962.2685
2023-05-16T09:36:34.265Z,962.3423
2023-05-16T09:37:36.889Z,962.2715
2023-05-16T09:38:39.465Z,962.2731
2023-05-16T09:39:42.100Z,962.2623
2023-05-16T09:40:44.667Z,962.3054
2023-05-16T09:41:47.322Z,962.3185
2023-05-16T09:42:49.904Z,962.4031
2023-05-16T09:43:52.507Z,962.3723
2023-05-16T09:44:55.093Z,962.4531
2023-05-16T09:45:57.746Z,962.4100
2023-05-16T09:47:00.375Z,962.4584
2023-05-16T09:48:03.008Z,962.4277
2023-05-16T09:49:05.512Z,962.4639
2023-05-16T09:50:08.157Z,962.4723
2023-05-16T09:51:10.739Z,962.4923
2023-05-16T09:52:13.354Z,962.5538
2023-05-16T09:53:16.129Z,962.4869
2023-05-16T09:54:18.581Z,962.5300
2023-05-16T09:55:21.160Z,962.5777
2023-05-16T09:56:23.873Z,962.5423
2023-05-16T09:57:26.371Z,962.5162
2023-05-16T09:58:29.012Z,962.5361
2023-05-16T09:59:31.584Z,962.5600
2023-05-16T10:00:34.224Z,962.5446
2023-05-16T10:01:36.911Z,962.6100
2023-05-16T10:02:39.502Z,962.5769
2023-05-16T10:03:42.157Z,962.5984
2023-05-16T10:04:44.661Z,962.6208
2023-05-16T10:05:47.250Z,962.5569
2023-05-16T10:06:49.982Z,962.6161
2023-05-16T10:07:52.469Z,962.5777
2023-05-16T10:08:55.101Z,962.6038
2023-05-16T10:09:57.704Z,962.5961
2023-05-16T10:11:00.322Z,962.5892
2023-05-16T10:12:02.910Z,962.5454
2023-05-16T10:13:05.544Z,962.5554
2023-05-16T10:15:13.518Z,962.5779
2023-05-16T10:16:16.140Z,962.6354
2023-05-16T10:17:18.751Z,962.6131
2023-05-16T10:18:21.359Z,962.6085
2023-05-16T10:19:24.084Z,962.6407
2023-05-16T10:20:26.548Z,962.6323
2023-05-16T10:21:29.183Z,962.6277
2023-05-16T10:22:31.772Z,962.6962
2023-05-16T10:23:34.407Z,962.6877
2023-05-16T10:24:37.000Z,962.6792
2023-05-16T10:25:39.614Z,962.6915
2023-05-16T10:26:42.217Z,962.6738
2023-05-16T10:27:44.857Z,962.6746
2023-05-16T10:28:47.422Z,962.7146
2023-05-16T10:29:54.858Z,962.7646
2023-05-16T10:30:52.626Z,962.7431
2023-05-16T10:31:55.270Z,962.7123
2023-05-16T10:32:57.874Z,962.6892
2023-05-16T10:34:00.586Z,962.6877
2023-05-16T10:35:03.054Z,962.7331
2023-05-16T10:36:05.790Z,962.6431
2023-05-16T10:37:08.257Z,962.6331
2023-05-16T10:38:10.896Z,962.5754
2023-05-16T10:39:13.468Z,962.5662
2023-05-16T10:40:16.168Z,962.5800
2023-05-16T10:41:18.911Z,962.6477
2023-05-16T10:42:21.331Z,962.5554
2023-05-16T10:43:23.907Z,962.5608
2023-05-16T10:44:26.545Z,962.5923
2023-05-16T10:45:29.466Z,962.6431
2023-05-16T10:46:31.886Z,962.6200
2023-05-16T10:47:34.349Z,962.6230
2023-05-16T10:50:20.931Z,962.6436
2023-05-16T10:51:23.411Z,962.6631
2023-05-16T10:52:25.988Z,962.6392
2023-05-16T10:53:28.632Z,962.6731
2023-05-16T10:54:33.453Z,962.6054
2023-05-16T10:55:33.837Z,962.6500
2023-05-16T10:56:36.454Z,962.6354
2023-05-16T10:57:39.064Z,962.6185
2023-05-16T10:58:41.667Z,962.5546
2023-05-16T10:59:44.296Z,962.5800
2023-05-16T11:00:46.888Z,962.5485
2023-05-16T11:01:49.602Z,962.5070
2023-05-16T11:02:52.155Z,962.4423
2023-05-16T11:03:54.794Z,962.4300
2023-05-16T11:04:57.300Z,962.4484
2023-05-16T11:05:59.958Z,962.3677
2023-05-16T11:07:02.528Z,962.3585
2023-05-16T11:08:05.213Z,962.3946
2023-05-16T11:09:07.756Z,962.3569
2023-05-16T11:10:10.364Z,962.3523
2023-05-16T11:11:12.947Z,962.3508
2023-05-16T11:12:15.578Z,962.3446
2023-05-16T11:13:18.307Z,962.3315
2023-05-16T11:14:21.046Z,962.3546
2023-05-16T11:15:23.522Z,962.3708
2023-05-16T11:16:26.073Z,962.4061
2023-05-16T11:17:28.663Z,962.4600
2023-05-16T11:18:31.322Z,962.4385
2023-05-16T11:19:33.811Z,962.4215
2023-05-16T11:20:36.439Z,962.4300
2023-05-16T11:21:39.150Z,962.4385
2023-05-16T11:22:41.651Z,962.5008
2023-05-16T11:23:44.204Z,962.5154
2023-05-16T11:24:46.838Z,962.5107
2023-05-16T11:25:49.419Z,962.4331
2023-05-16T11:26:52.048Z,962.4200
2023-05-16T11:27:54.620Z,962.4692
2023-05-16T11:28:57.266Z,962.5169
2023-05-16T11:30:02.033Z,962.5423
2023-05-16T11:31:02.514Z,962.4861
2023-05-16T11:32:05.228Z,962.4462
2023-05-16T11:33:08.024Z,962.5677
2023-05-16T11:34:10.295Z,962.5069
2023-05-16T11:35:14.682Z,962.4646
2023-05-16T11:36:16.531Z,962.4777
2023-05-16T11:37:18.230Z,962.5446
2023-05-16T11:38:20.842Z,962.5477
2023-05-16T11:39:23.401Z,962.6138
2023-05-16T11:40:25.938Z,962.6131
2023-05-16T11:41:28.572Z,962.6046
2023-05-16T11:44:29.475Z,962.6250
2023-05-16T11:45:32.125Z,962.6577
2023-05-16T11:46:34.741Z,962.6000
2023-05-16T11:47:37.399Z,962.6023
2023-05-16T11:48:39.960Z,962.5369
2023-05-16T11:49:42.550Z,962.5946
2023-05-16T11:50:45.137Z,962.6346
2023-05-16T11:51:47.779Z,962.7646
2023-05-16T11:52:50.536Z,962.6769
2023-05-16T11:53:53.010Z,962.6815
2023-05-16T11:54:55.586Z,962.6900
2023-05-16T11:55:58.551Z,962.7161
2023-05-16T11:57:01.136Z,962.7338
2023-05-16T11:58:03.458Z,962.7546
2023-05-16T11:59:06.046Z,962.7861
2023-05-16T12:00:08.699Z,962.7269
2023-05-16T12:01:11.263Z,962.7900
2023-05-16T12:02:13.898Z,962.7562
2023-05-16T12:03:16.593Z,962.7492
2023-05-16T12:04:19.299Z,962.8031
2023-05-16T12:05:21.733Z,962.8377
2023-05-16T12:06:24.340Z,962.8085
2023-05-16T12:07:26.921Z,962.8200
2023-05-16T12:08:29.586Z,962.8223
2023-05-16T12:09:32.141Z,962.8461
2023-05-16T12:10:35.201Z,962.8377
2023-05-16T12:11:37.369Z,962.8115
2023-05-16T12:12:40.020Z,962.8223
2023-05-16T12:13:42.633Z,962.8346
2023-05-16T12:14:45.233Z,962.8554
2023-05-16T12:15:47.802Z,962.8769
2023-05-16T12:16:50.494Z,962.8823
2023-05-16T12:17:53.106Z,962.9223
2023-05-16T12:18:55.677Z,962.9100
2023-05-16T12:19:58.254Z,962.9723
2023-05-16T12:21:00.886Z,962.9077
2023-05-16T12:22:03.470Z,962.9654
2023-05-16T12:23:06.118Z,962.9315
2023-05-16T12:24:08.721Z,962.9116
2023-05-16T12:25:11.313Z,962.9738
2023-05-16T12:26:13.896Z,962.9808
2023-05-16T12:27:16.545Z,962.9738
2023-05-16T12:28:19.399Z,962.9923
2023-05-16T12:29:21.750Z,963.0031
2023-05-16T12:30:24.331Z,962.9946
2023-05-16T12:31:31.080Z,963.0085
2023-05-16T12:32:29.741Z,963.0454
2023-05-16T12:33:32.223Z,963.0239
2023-05-16T12:34:34.773Z,963.0008
2023-05-16T12:35:37.399Z,962.9846
2023-05-16T12:36:39.997Z,963.0184
2023-05-16T12:37:42.621Z,963.0023
2023-05-16T12:38:46.864Z,963.0107
2023-05-16T12:39:47.862Z,963.0107
2023-05-16T12:40:50.417Z,962.9908
2023-05-16T12:41:53.052Z,962.9293
2023-05-16T12:42:55.634Z,962.8984
2023-05-16T12:43:58.540Z,962.9900
2023-05-16T12:45:00.863Z,962.8762
2023-05-16T12:46:03.502Z,962.8900
2023-05-16T12:47:06.083Z,962.9161
2023-05-16T12:48:08.768Z,962.9354